Terminal Aerodrome Forecast
Issued by NWS

Home | Current Version | Previous Version | Text Only | Print | Product List | Glossary On
Versions: 1 2 3 4 5 6 7 8 9 10 11 12 13
000
FTUS45 KTFX 052320
TAFBZN
TAF
KBZN 052320Z 0600/0624 VRB06KT P6SM FEW060 SCT090 BKN200
     FM060700 30010KT P6SM SCT035 BKN090
     FM061200 33010KT P6SM VCSH SCT020 BKN035
      TEMPO 0614/0618 5SM -SHRA BR OVC020
     FM061800 06008KT P6SM -SHRA OVC025=

USA.gov is the U.S. government's official web portal to all federal, state and local government web resources and services.